Time;durP1;ratioP1;P1;durP2;ratioP2;P2;SDS_P1;SDS_P2;PMS_P1;PMS_P2;Temp;Humidity;BMP_temperature;BMP_pressure;BME280_temperature;BME280_humidity;BME280_pressure;Samples;Min_cycle;Max_cycle;Signal;HPM_P1;HPM_P2
2022/01/14 00:02:07;;;;;;;1.57;1.47;;;20.20;46.90;;;;;;4972383;28;20875;-74
2022/01/14 00:04:33;;;;;;;2.00;1.90;;;;;;;;;;4972084;28;20795;-74
2022/01/14 00:06:59;;;;;;;1.87;1.77;;;;;;;;;;4972417;28;20414;-73
2022/01/14 00:09:25;;;;;;;2.10;2.00;;;;;;;;;;4972447;28;20803;-73
2022/01/14 00:11:56;;;;;;;2.40;2.30;;;20.10;47.30;;;;;;4972426;28;20438;-73
2022/01/14 00:14:36;;;;;;;2.10;2.00;;;20.10;47.00;;;;;;4972083;28;20434;-74
2022/01/14 00:17:03;;;;;;;1.87;1.77;;;20.00;47.00;;;;;;4972486;28;20402;-74
2022/01/14 00:19:29;;;;;;;1.83;1.83;;;;;;;;;;4971804;28;20831;-74
2022/01/14 00:21:59;;;;;;;2.30;2.20;;;20.10;46.70;;;;;;4971918;28;20426;-75
2022/01/14 00:24:30;;;;;;;2.30;2.20;;;;;;;;;;4971586;28;20500;-73
2022/01/14 00:34:54;;;;;;;2.30;2.00;;;;;;;;;;4974756;28;20952;-73
2022/01/14 00:37:20;;;;;;;2.10;2.00;;;;;;;;;;4971604;28;20442;-73
2022/01/14 00:39:47;;;;;;;1.70;1.60;;;20.10;57.90;;;;;;4969820;28;20997;-73
2022/01/14 00:42:13;;;;;;;2.00;1.90;;;20.00;47.20;;;;;;4966571;28;20541;-73
2022/01/14 00:44:39;;;;;;;1.97;1.90;;;;;;;;;;4968704;28;20433;-74
2022/01/14 00:47:05;;;;;;;2.27;2.17;;;20.00;70.60;;;;;;4968304;28;20561;-74
2022/01/14 00:49:34;;;;;;;1.80;1.80;;;19.80;69.90;;;;;;4966915;28;20406;-72
2022/01/14 00:52:00;;;;;;;2.07;1.67;;;;;;;;;;4967508;28;20473;-73
2022/01/14 00:54:26;;;;;;;2.20;2.10;;;;;;;;;;4967159;28;20806;-74
2022/01/14 00:59:27;;;;;;;1.93;1.83;;;;;;;;;;4968318;28;20469;-73
2022/01/14 01:01:56;;;;;;;2.00;2.00;;;19.90;47.70;;;;;;4968205;28;20533;-73
2022/01/14 01:04:30;;;;;;;2.10;2.00;;;20.00;47.00;;;;;;4968055;28;20478;-75
2022/01/14 01:06:57;;;;;;;2.30;2.20;;;20.60;47.90;;;;;;4968282;28;20437;-73
2022/01/14 01:09:25;;;;;;;1.90;1.90;;;20.10;48.60;;;;;;4968557;28;20521;-73
2022/01/14 01:11:54;;;;;;;3.17;2.50;;;;;;;;;;4966860;28;20476;-73
2022/01/14 01:14:38;;;;;;;2.30;2.20;;;19.90;65.30;;;;;;4966844;28;20454;-73
2022/01/14 01:17:04;;;;;;;1.87;1.80;;;;;;;;;;4969911;28;20511;-74
2022/01/14 01:19:30;;;;;;;1.87;1.77;;;;;;;;;;4967330;28;20453;-74
2022/01/14 01:21:56;;;;;;;2.00;2.00;;;;;;;;;;4973543;28;20454;-74
2022/01/14 01:24:22;;;;;;;2.20;2.10;;;;;;;;;;4968745;28;20448;-73
2022/01/14 01:26:50;;;;;;;1.70;1.70;;;;;;;;;;4970505;28;20446;-73
2022/01/14 01:29:31;;;;;;;1.80;1.70;;;;;;;;;;4970654;28;20414;-73
2022/01/14 01:31:57;;;;;;;2.57;2.37;;;;;;;;;;4970288;28;20512;-73
2022/01/14 01:34:25;;;;;;;2.30;2.20;;;19.80;47.60;;;;;;4970849;28;20422;-73
2022/01/14 01:36:53;;;;;;;2.07;2.00;;;19.90;47.60;;;;;;4970229;28;20422;-74
2022/01/14 01:39:22;;;;;;;2.17;2.07;;;19.70;47.50;;;;;;4968441;28;20449;-73
2022/01/14 01:41:50;;;;;;;2.37;2.27;;;19.60;51.20;;;;;;4969789;28;20458;-73
2022/01/14 01:44:18;;;;;;;2.00;1.93;;;19.80;70.00;;;;;;4970013;28;20418;-72
2022/01/14 01:46:46;;;;;;;2.07;1.97;;;19.80;68.80;;;;;;4970330;28;20509;-73
2022/01/14 01:49:14;;;;;;;2.13;2.03;;;19.70;65.40;;;;;;4970073;28;20410;-73
2022/01/14 01:51:42;;;;;;;1.97;1.87;;;19.80;47.50;;;;;;4985082;28;20445;-73
2022/01/14 01:54:08;;;;;;;2.07;1.97;;;;;;;;;;4974608;28;20454;-74
2022/01/14 01:56:34;;;;;;;2.43;2.20;;;;;;;;;;4969902;28;20434;-73
2022/01/14 01:59:00;;;;;;;2.00;2.00;;;19.60;55.30;;;;;;4969710;28;20414;-74
2022/01/14 02:01:26;;;;;;;2.37;2.27;;;;;;;;;;4969936;28;20810;-74
2022/01/14 02:03:54;;;;;;;1.70;1.70;;;19.70;47.60;;;;;;4969785;28;20189;-74
2022/01/14 02:06:20;;;;;;;2.00;1.90;;;19.80;47.50;;;;;;4969909;28;20418;-75
2022/01/14 02:08:47;;;;;;;2.20;2.10;;;;;;;;;;4969714;28;20517;-73
2022/01/14 02:11:12;;;;;;;2.90;2.70;;;19.90;53.40;;;;;;4969574;28;20440;-73
2022/01/14 02:13:38;;;;;;;2.67;2.10;;;;;;;;;;4969778;28;20506;-73
2022/01/14 02:18:48;;;;;;;2.37;2.27;;;20.00;47.70;;;;;;4984517;28;20440;-73
2022/01/14 02:26:54;;;;;;;1.77;1.67;;;19.70;56.30;;;;;;4976258;28;20440;-74
2022/01/14 02:29:21;;;;;;;1.90;1.90;;;19.80;47.90;;;;;;4975990;28;20938;-73
2022/01/14 02:31:47;;;;;;;2.17;2.07;;;19.80;66.30;;;;;;4975930;28;20476;-73
2022/01/14 02:34:15;;;;;;;2.10;2.00;;;19.30;47.60;;;;;;4976645;28;20433;-73
2022/01/14 02:36:42;;;;;;;1.90;1.80;;;19.70;47.90;;;;;;4976130;28;20471;-74
2022/01/14 02:39:10;;;;;;;2.10;2.00;;;19.70;47.90;;;;;;4975754;28;20417;-72
2022/01/14 02:41:37;;;;;;;2.80;2.67;;;19.60;47.80;;;;;;4975959;28;20438;-73
2022/01/14 02:44:05;;;;;;;1.93;1.83;;;19.70;47.90;;;;;;4975664;28;20409;-73
2022/01/14 02:46:37;;;;;;;2.30;2.20;;;;;;;;;;4976186;28;20432;-73
2022/01/14 02:49:04;;;;;;;2.10;2.00;;;19.70;47.70;;;;;;4975975;28;20499;-73
2022/01/14 02:51:30;;;;;;;2.03;1.93;;;;;;;;;;4975851;28;20436;-73
2022/01/14 02:53:59;;;;;;;2.30;2.20;;;;;;;;;;4975764;28;20476;-73
2022/01/14 02:56:30;;;;;;;2.23;2.13;;;19.70;47.90;;;;;;4975880;28;20409;-73
2022/01/14 02:58:58;;;;;;;2.40;2.30;;;19.80;49.10;;;;;;4976101;28;20424;-74
2022/01/14 03:01:26;;;;;;;2.30;2.10;;;19.80;49.10;;;;;;4976037;28;20544;-73
2022/01/14 03:03:57;;;;;;;2.30;2.20;;;19.60;51.90;;;;;;4975763;28;20429;-73
2022/01/14 03:06:24;;;;;;;3.00;2.80;;;19.70;47.70;;;;;;4976023;28;20499;-73
2022/01/14 03:08:50;;;;;;;2.57;2.47;;;;;;;;;;4976001;28;20410;-73
2022/01/14 03:11:26;;;;;;;2.17;2.07;;;19.70;65.50;;;;;;4975752;28;20480;-73
2022/01/14 03:13:52;;;;;;;2.33;2.23;;;;;;;;;;4975685;28;20440;-74
2022/01/14 03:16:21;;;;;;;2.80;2.60;;;19.40;65.50;;;;;;4975964;28;20405;-74
2022/01/14 03:18:50;;;;;;;2.27;2.07;;;20.20;47.80;;;;;;4976096;28;20767;-73
2022/01/14 03:21:25;;;;;;;2.30;2.20;;;;;;;;;;4975325;28;20552;-73
2022/01/14 03:24:02;;;;;;;2.50;2.37;;;19.50;66.30;;;;;;4975828;28;20463;-73
2022/01/14 03:26:28;;;;;;;2.57;2.47;;;;;;;;;;4974998;28;20425;-74
2022/01/14 03:28:54;;;;;;;2.50;2.40;;;;;;;;;;4971450;28;20490;-73
2022/01/14 03:31:20;;;;;;;2.67;2.57;;;;;;;;;;4972559;28;20484;-73
2022/01/14 03:33:46;;;;;;;2.43;2.33;;;;;;;;;;4972741;28;20513;-73
2022/01/14 03:36:12;;;;;;;2.23;2.13;;;;;;;;;;4972999;28;20414;-72
2022/01/14 03:38:38;;;;;;;2.50;2.27;;;;;;;;;;4973031;28;20417;-73
2022/01/14 03:41:04;;;;;;;2.33;2.23;;;19.60;47.70;;;;;;4972872;28;20465;-73
2022/01/14 03:43:31;;;;;;;2.27;2.17;;;;;;;;;;4972667;28;20426;-74
2022/01/14 03:45:57;;;;;;;2.40;2.30;;;;;;;;;;4972892;28;20483;-73
2022/01/14 03:48:23;;;;;;;2.03;1.93;;;;;;;;;;4972906;28;20414;-73
2022/01/14 03:50:49;;;;;;;2.40;2.30;;;;;;;;;;4972939;28;20421;-73
2022/01/14 03:53:15;;;;;;;2.43;2.33;;;19.60;69.70;;;;;;4972790;28;20509;-73
2022/01/14 03:55:43;;;;;;;2.17;2.07;;;19.60;48.00;;;;;;4972701;28;20464;-73
2022/01/14 03:58:10;;;;;;;2.80;2.60;;;;;;;;;;4972725;28;20496;-73
2022/01/14 04:00:36;;;;;;;2.40;2.30;;;19.60;48.00;;;;;;4972746;28;20458;-73
2022/01/14 04:03:03;;;;;;;2.47;2.37;;;19.60;47.90;;;;;;4972462;28;20918;-73
2022/01/14 04:05:29;;;;;;;2.53;2.43;;;;;;;;;;4987195;28;20438;-74
2022/01/14 04:07:55;;;;;;;2.83;2.63;;;;;;;;;;4972592;28;20461;-73
2022/01/14 04:10:22;;;;;;;1.80;1.70;;;;;;;;;;4972310;28;20434;-75
2022/01/14 04:12:58;;;;;;;2.33;2.23;;;;;;;;;;4972895;28;20500;-73
2022/01/14 04:15:45;;;;;;;2.33;2.23;;;;;;;;;;4972375;28;20453;-73
2022/01/14 04:18:13;;;;;;;2.20;2.10;;;19.50;47.90;;;;;;4968525;28;20411;-73
2022/01/14 04:20:40;;;;;;;2.17;1.97;;;19.50;48.00;;;;;;4968234;28;20498;-73
2022/01/14 04:23:07;;;;;;;2.40;2.30;;;19.80;68.00;;;;;;4971465;28;20418;-74
2022/01/14 04:25:35;;;;;;;2.70;2.50;;;19.60;60.60;;;;;;4967870;28;20435;-73
2022/01/14 04:28:03;;;;;;;2.37;2.27;;;19.50;48.00;;;;;;4971814;28;20933;-73
2022/01/14 04:30:29;;;;;;;2.50;2.40;;;19.60;58.20;;;;;;4972033;28;20426;-73
2022/01/14 04:32:55;;;;;;;2.47;2.37;;;;;;;;;;4971943;28;20525;-73
2022/01/14 04:35:21;;;;;;;2.50;2.07;;;;;;;;;;4979256;28;20183;-74
2022/01/14 04:37:46;;;;;;;2.77;2.67;;;19.60;65.20;;;;;;4971785;28;20410;-73
2022/01/14 04:40:13;;;;;;;2.43;2.17;;;19.40;52.40;;;;;;4971713;28;20460;-74
2022/01/14 04:42:41;;;;;;;2.50;2.40;;;19.20;50.50;;;;;;4971957;28;20202;-73
2022/01/14 04:45:09;;;;;;;2.10;2.00;;;20.20;50.60;;;;;;4971617;28;20492;-73
2022/01/14 04:47:44;;;;;;;2.40;2.30;;;;;;;;;;4971894;28;20406;-73
2022/01/14 04:50:20;;;;;;;2.73;2.63;;;19.50;47.90;;;;;;4971775;28;20412;-73
2022/01/14 04:52:47;;;;;;;3.27;3.07;;;;;;;;;;4971466;28;20453;-73
2022/01/14 04:55:16;;;;;;;2.73;2.63;;;19.50;58.10;;;;;;4971328;28;20434;-73
2022/01/14 04:57:42;;;;;;;2.20;2.10;;;19.70;51.10;;;;;;4971268;28;20424;-73
2022/01/14 05:00:29;;;;;;;3.40;3.20;;;19.60;71.90;;;;;;4971523;28;20970;-73
2022/01/14 05:02:56;;;;;;;2.30;2.20;;;;;;;;;;4970875;28;20898;-74
2022/01/14 05:05:27;;;;;;;2.97;2.77;;;19.50;48.40;;;;;;4971481;28;20425;-74
2022/01/14 05:07:54;;;;;;;2.30;2.20;;;;;;;;;;4971384;28;20442;-74
2022/01/14 05:12:55;;;;;;;2.60;2.50;;;;;;;;;;4971407;28;20456;-74
2022/01/14 05:15:21;;;;;;;2.50;2.20;;;;;;;;;;4971308;28;20497;-73
2022/01/14 05:17:48;;;;;;;2.00;1.90;;;19.50;48.00;;;;;;4970978;28;20422;-74
2022/01/14 05:20:14;;;;;;;2.47;2.37;;;19.50;47.90;;;;;;4970683;28;21008;-73
2022/01/14 05:22:40;;;;;;;1.93;1.83;;;;;;;;;;4970958;28;20438;-74
2022/01/14 05:25:08;;;;;;;2.33;2.23;;;19.40;49.00;;;;;;4971021;28;20894;-74
2022/01/14 05:27:35;;;;;;;2.40;2.30;;;19.50;49.10;;;;;;4970848;28;20418;-74
2022/01/14 05:30:01;;;;;;;3.07;2.97;;;;;;;;;;4970794;28;20937;-73
2022/01/14 05:32:28;;;;;;;2.77;2.33;;;;;;;;;;4970722;28;20466;-73
2022/01/14 05:34:53;;;;;;;2.70;2.60;;;19.50;63.20;;;;;;4981750;28;20429;-75
2022/01/14 05:37:19;;;;;;;3.10;2.90;;;;;;;;;;4970689;28;20492;-73
2022/01/14 05:39:45;;;;;;;2.77;2.57;;;;;;;;;;4970276;28;20198;-73
2022/01/14 05:42:11;;;;;;;2.90;2.80;;;;;;;;;;4970522;28;20506;-73
2022/01/14 05:44:38;;;;;;;2.60;2.50;;;;;;;;;;4970797;28;20422;-74
2022/01/14 05:47:04;;;;;;;2.87;2.77;;;;;;;;;;4971104;28;20565;-73
2022/01/14 05:49:30;;;;;;;3.60;3.40;;;;;;;;;;4970119;28;20950;-74
2022/01/14 05:51:56;;;;;;;2.43;2.33;;;19.40;48.00;;;;;;4969652;28;20529;-73
2022/01/14 05:54:23;;;;;;;2.67;2.57;;;19.50;49.80;;;;;;4970340;28;20472;-73
2022/01/14 05:56:49;;;;;;;3.00;2.90;;;19.50;47.90;;;;;;4970525;28;20480;-74
2022/01/14 05:59:16;;;;;;;3.40;3.20;;;19.10;47.90;;;;;;4970282;28;20467;-74
2022/01/14 06:01:42;;;;;;;3.27;3.03;;;;;;;;;;4969858;28;20570;-73
2022/01/14 06:04:08;;;;;;;2.87;2.70;;;;;;;;;;4970369;28;20410;-73
2022/01/14 06:06:34;;;;;;;3.13;2.90;;;19.50;48.10;;;;;;4970403;28;20557;-73
2022/01/14 06:09:00;;;;;;;2.67;2.47;;;19.30;66.00;;;;;;4970245;28;20918;-73
2022/01/14 06:11:26;;;;;;;3.10;2.90;;;19.50;61.60;;;;;;4970362;28;20859;-73
2022/01/14 06:13:53;;;;;;;3.23;3.03;;;;;;;;;;4970244;28;20472;-73
2022/01/14 06:16:19;;;;;;;3.13;2.87;;;19.70;59.90;;;;;;4970595;28;21062;-73
2022/01/14 06:18:45;;;;;;;3.43;3.27;;;;;;;;;;4970311;28;20995;-74
2022/01/14 06:21:11;;;;;;;2.60;2.50;;;19.40;48.10;;;;;;4968642;28;20563;-73
2022/01/14 06:23:37;;;;;;;3.03;2.83;;;19.60;51.10;;;;;;4969622;28;20749;-74
2022/01/14 06:26:04;;;;;;;3.20;3.00;;;19.40;48.10;;;;;;4969821;28;20429;-74
2022/01/14 06:28:33;;;;;;;3.00;2.90;;;19.50;52.20;;;;;;4970193;28;20414;-74
2022/01/14 06:30:59;;;;;;;6.60;4.97;;;;;;;;;;4965867;28;20922;-73
2022/01/14 06:33:25;;;;;;;25.87;14.83;;;19.50;54.90;;;;;;4960324;28;20937;-74
2022/01/14 06:35:51;;;;;;;28.67;16.40;;;;;;;;;;4965413;28;20452;-73
2022/01/14 06:38:17;;;;;;;27.47;17.03;;;19.00;41.30;;;;;;4967093;28;20554;-74
2022/01/14 06:40:46;;;;;;;31.30;18.97;;;;;;;;;;4959862;28;20891;-72
2022/01/14 06:43:12;;;;;;;36.30;20.80;;;;;;;;;;4967022;28;20422;-73
2022/01/14 06:45:38;;;;;;;41.87;19.47;;;;;;;;;;4969474;28;20490;-73
2022/01/14 06:48:04;;;;;;;28.40;17.10;;;19.50;41.60;;;;;;4968408;28;20513;-73
2022/01/14 06:50:30;;;;;;;27.50;15.27;;;;;;;;;;4969461;28;20426;-73
2022/01/14 06:52:56;;;;;;;24.87;15.17;;;;;;;;;;4969362;28;20433;-73
2022/01/14 06:55:22;;;;;;;22.53;13.47;;;;;;;;;;4969543;28;20954;-73
2022/01/14 06:57:48;;;;;;;19.13;11.83;;;;;;;;;;4969096;28;20422;-73
2022/01/14 07:00:16;;;;;;;22.57;13.40;;;18.10;42.70;;;;;;4969431;28;20646;-73
2022/01/14 07:02:42;;;;;;;18.90;12.23;;;;;;;;;;4971793;28;20434;-72
2022/01/14 07:05:09;;;;;;;16.70;11.13;;;17.50;42.80;;;;;;4972854;28;20417;-72
2022/01/14 07:07:36;;;;;;;17.43;11.77;;;;;;;;;;4972551;28;20920;-73
2022/01/14 07:10:04;;;;;;;15.97;11.00;;;18.40;43.70;;;;;;4972999;28;20443;-72
2022/01/14 07:12:38;;;;;;;14.87;10.47;;;18.40;43.20;;;;;;4972768;28;20930;-72
2022/01/14 07:15:10;;;;;;;15.40;10.40;;;18.50;43.40;;;;;;4972094;28;20853;-73
2022/01/14 07:17:36;;;;;;;17.30;9.70;;;18.50;44.00;;;;;;4971946;28;20896;-73
2022/01/14 07:20:07;;;;;;;19.83;10.73;;;18.70;44.50;;;;;;4973419;28;20479;-73
2022/01/14 07:22:33;;;;;;;14.33;10.30;;;;;;;;;;4972837;28;20765;-73
2022/01/14 07:24:59;;;;;;;15.40;10.20;;;;;;;;;;4971720;28;20983;-73
2022/01/14 07:27:27;;;;;;;13.43;9.00;;;18.60;44.40;;;;;;4972240;28;20436;-74
2022/01/14 07:29:53;;;;;;;15.40;10.10;;;;;;;;;;4968815;28;20448;-73
2022/01/14 07:32:19;;;;;;;13.27;9.37;;;;;;;;;;4972666;28;20442;-73
2022/01/14 07:34:45;;;;;;;15.90;9.60;;;;;;;;;;4970382;28;20433;-73
2022/01/14 07:37:11;;;;;;;13.50;9.10;;;;;;;;;;4973057;28;20935;-74
2022/01/14 07:39:37;;;;;;;12.80;9.23;;;18.80;52.30;;;;;;4972604;28;20461;-74
2022/01/14 07:42:03;;;;;;;16.00;10.60;;;19.10;50.50;;;;;;4972850;28;20456;-74
2022/01/14 07:44:29;;;;;;;14.33;9.13;;;;;;;;;;4972358;28;20200;-73
2022/01/14 07:46:55;;;;;;;14.77;9.23;;;;;;;;;;4971517;28;20426;-73
2022/01/14 07:49:21;;;;;;;14.27;8.67;;;;;;;;;;4971238;28;20434;-74
2022/01/14 07:51:47;;;;;;;13.43;8.17;;;;;;;;;;4970892;28;20507;-73
2022/01/14 07:54:13;;;;;;;7.77;6.97;;;;;;;;;;4971543;28;20430;-74
2022/01/14 07:56:45;;;;;;;10.50;7.77;;;19.20;45.20;;;;;;4971975;28;20433;-74
2022/01/14 07:59:12;;;;;;;20.97;10.30;;;19.60;45.80;;;;;;4972617;28;20410;-74
2022/01/14 08:01:38;;;;;;;24.70;9.57;;;;;;;;;;4971488;28;20468;-74
2022/01/14 08:04:05;;;;;;;13.43;9.20;;;;;;;;;;4971458;28;20414;-74
2022/01/14 08:06:34;;;;;;;13.27;7.57;;;19.20;47.00;;;;;;4971606;28;20414;-74
2022/01/14 08:09:00;;;;;;;16.03;9.10;;;;;;;;;;4971661;28;20430;-74
2022/01/14 08:11:26;;;;;;;15.97;8.60;;;;;;;;;;4971120;28;20446;-74
2022/01/14 08:13:52;;;;;;;14.07;7.77;;;;;;;;;;4961445;28;20430;-74
2022/01/14 08:16:18;;;;;;;16.80;8.50;;;;;;;;;;4971552;28;20494;-74
2022/01/14 08:18:44;;;;;;;15.30;10.20;;;;;;;;;;4971020;28;20509;-74
2022/01/14 08:21:09;;;;;;;14.47;8.50;;;19.70;67.00;;;;;;4970514;28;20913;-74
2022/01/14 08:23:35;;;;;;;15.07;9.03;;;19.50;66.90;;;;;;4970808;28;20585;-74
2022/01/14 08:26:01;;;;;;;11.83;7.90;;;;;;;;;;4970013;28;20685;-74
2022/01/14 08:28:27;;;;;;;12.63;7.37;;;19.40;51.40;;;;;;4970863;28;20190;-73
2022/01/14 08:30:53;;;;;;;12.83;8.17;;;19.60;45.70;;;;;;4971108;28;21007;-73
2022/01/14 08:33:19;;;;;;;11.70;7.60;;;;;;;;;;4970681;28;20582;-74
2022/01/14 08:35:46;;;;;;;13.37;9.13;;;19.60;45.60;;;;;;4978065;28;20426;-74
2022/01/14 08:38:12;;;;;;;16.10;9.93;;;;;;;;;;4968814;28;20593;-74
2022/01/14 08:40:38;;;;;;;14.43;8.20;;;;;;;;;;4968522;28;20613;-74
2022/01/14 08:43:04;;;;;;;13.13;8.07;;;;;;;;;;4970620;28;20453;-73
2022/01/14 08:45:30;;;;;;;11.00;7.60;;;;;;;;;;4958209;28;20426;-74
2022/01/14 08:47:56;;;;;;;11.87;8.30;;;19.80;48.20;;;;;;4966661;28;20434;-74
2022/01/14 08:50:26;;;;;;;13.77;8.00;;;19.60;61.10;;;;;;4970545;28;20436;-74
2022/01/14 08:52:51;;;;;;;27.80;13.10;;;20.00;47.60;;;;;;4970461;28;20457;-74
2022/01/14 08:55:18;;;;;;;35.53;17.80;;;19.80;46.10;;;;;;4970969;28;20865;-74
2022/01/14 08:57:45;;;;;;;48.03;21.27;;;19.80;45.90;;;;;;4971375;28;20227;-74
2022/01/14 09:00:13;;;;;;;57.23;26.30;;;19.80;46.00;;;;;;4971273;28;20462;-74
2022/01/14 09:02:39;;;;;;;60.53;29.13;;;;;;;;;;4970202;28;20481;-74
2022/01/14 09:05:06;;;;;;;63.80;28.80;;;19.90;46.10;;;;;;4970146;28;20473;-74
2022/01/14 09:07:32;;;;;;;70.33;30.97;;;;;;;;;;4970219;28;20434;-74
2022/01/14 09:09:58;;;;;;;74.57;31.00;;;;;;;;;;4969763;28;20442;-74
2022/01/14 09:12:23;;;;;;;82.27;35.70;;;19.60;61.90;;;;;;4974712;28;20446;-74
2022/01/14 09:14:49;;;;;;;80.27;35.63;;;;;;;;;;4970756;28;20897;-75
2022/01/14 09:17:17;;;;;;;76.97;33.73;;;19.80;68.40;;;;;;4970521;28;20198;-75
2022/01/14 09:19:43;;;;;;;82.50;36.40;;;18.90;45.90;;;;;;4969852;28;20465;-75
2022/01/14 09:22:10;;;;;;;82.67;37.10;;;;;;;;;;4970768;28;20967;-75
2022/01/14 09:24:36;;;;;;;86.17;40.03;;;20.10;46.20;;;;;;4970536;28;20407;-74
2022/01/14 09:27:02;;;;;;;86.77;38.43;;;;;;;;;;4968783;28;20430;-74
2022/01/14 09:29:28;;;;;;;87.97;39.40;;;;;;;;;;4970340;28;20571;-75
2022/01/14 09:31:54;;;;;;;94.00;42.57;;;;;;;;;;4970433;28;20566;-75
2022/01/14 09:34:20;;;;;;;88.80;39.90;;;;;;;;;;4979201;28;20902;-74
2022/01/14 09:36:46;;;;;;;79.83;37.13;;;;;;;;;;4971826;28;20453;-73
2022/01/14 09:39:12;;;;;;;79.87;38.00;;;;;;;;;;4970225;28;20415;-74
2022/01/14 09:41:38;;;;;;;93.60;41.87;;;20.00;46.00;;;;;;4970176;28;20933;-74
2022/01/14 09:44:05;;;;;;;100.90;42.43;;;20.10;46.40;;;;;;4969738;28;20945;-74
2022/01/14 09:46:31;;;;;;;94.63;42.53;;;;;;;;;;4970447;28;20484;-73
2022/01/14 09:48:57;;;;;;;96.60;41.13;;;;;;;;;;4970209;28;20422;-74
2022/01/14 09:51:23;;;;;;;79.63;37.97;;;;;;;;;;4970112;28;20942;-74
2022/01/14 09:53:49;;;;;;;85.97;41.03;;;20.20;50.60;;;;;;4969668;28;20524;-74
2022/01/14 09:56:20;;;;;;;96.00;43.17;;;20.30;52.60;;;;;;4970191;28;20465;-74
2022/01/14 09:58:48;;;;;;;94.30;40.70;;;20.30;46.70;;;;;;4967418;28;20430;-74
2022/01/14 10:01:17;;;;;;;84.73;38.20;;;20.20;46.40;;;;;;4968628;28;20919;-75
2022/01/14 10:03:54;;;;;;;66.27;32.67;;;20.20;45.80;;;;;;4969943;28;20930;-73
2022/01/14 10:06:41;;;;;;;60.47;30.60;;;20.30;46.50;;;;;;4969928;28;20440;-75
2022/01/14 10:09:09;;;;;;;62.17;29.47;;;20.50;71.20;;;;;;4971415;28;20763;-74
2022/01/14 10:11:37;;;;;;;53.67;28.87;;;20.30;53.00;;;;;;4971168;28;20453;-74
2022/01/14 10:14:12;;;;;;;63.97;31.40;;;20.20;45.60;;;;;;4970082;28;20425;-74
2022/01/14 10:16:41;;;;;;;71.30;32.57;;;20.10;51.50;;;;;;4969568;28;20443;-75
2022/01/14 10:19:21;;;;;;;71.33;30.43;;;20.30;46.40;;;;;;4969425;28;20937;-75
2022/01/14 10:21:47;;;;;;;68.23;31.23;;;21.40;50.80;;;;;;4964625;28;20437;-75
2022/01/14 10:24:13;;;;;;;61.27;30.63;;;;;;;;;;4969464;28;20418;-75
2022/01/14 10:26:54;;;;;;;58.70;31.43;;;20.30;45.80;;;;;;4969498;28;20442;-75
2022/01/14 10:29:38;;;;;;;82.80;38.97;;;21.70;46.60;;;;;;4969403;28;20426;-74
2022/01/14 10:32:06;;;;;;;68.27;32.20;;;20.30;46.20;;;;;;4970092;28;20434;-74
2022/01/14 10:34:32;;;;;;;76.03;32.67;;;;;;;;;;4967556;28;20493;-73
2022/01/14 10:37:15;;;;;;;61.43;29.97;;;20.90;46.10;;;;;;4970977;28;20529;-73
2022/01/14 10:39:47;;;;;;;59.87;27.80;;;20.20;51.60;;;;;;4973312;28;20476;-74
2022/01/14 10:42:27;;;;;;;59.83;30.87;;;20.40;45.80;;;;;;4973176;28;20570;-74
2022/01/14 10:44:54;;;;;;;63.80;30.17;;;21.50;46.80;;;;;;4973468;28;20745;-74
2022/01/14 10:47:24;;;;;;;59.90;29.07;;;20.30;46.40;;;;;;4974191;28;20429;-74
2022/01/14 10:49:55;;;;;;;55.77;28.70;;;20.30;46.00;;;;;;4973248;28;20446;-74
2022/01/14 10:52:23;;;;;;;53.83;28.63;;;20.40;46.10;;;;;;4972267;28;20517;-74
2022/01/14 10:54:52;;;;;;;69.03;31.23;;;20.40;46.20;;;;;;4972962;28;20453;-74
2022/01/14 10:57:21;;;;;;;66.37;31.77;;;20.20;46.00;;;;;;4973770;28;20424;-75
2022/01/14 10:59:49;;;;;;;64.40;29.70;;;20.40;46.40;;;;;;4970330;28;20868;-72
2022/01/14 11:02:30;;;;;;;56.73;28.67;;;20.40;45.80;;;;;;4972683;28;20461;-73
2022/01/14 11:05:03;;;;;;;59.80;30.30;;;21.70;48.30;;;;;;4972139;28;20430;-74
2022/01/14 11:07:29;;;;;;;60.60;29.83;;;;;;;;;;4972794;28;20429;-73
2022/01/14 11:09:57;;;;;;;55.67;29.73;;;;;;;;;;4972637;28;20425;-73
2022/01/14 11:12:24;;;;;;;67.57;28.13;;;20.50;46.20;;;;;;4972664;28;20545;-73
2022/01/14 11:14:50;;;;;;;56.03;29.50;;;20.40;45.90;;;;;;4972158;28;20850;-73
2022/01/14 11:17:16;;;;;;;53.07;26.90;;;;;;;;;;4972090;28;20438;-73
2022/01/14 11:19:46;;;;;;;52.77;26.90;;;20.40;51.40;;;;;;4972484;28;21063;-74
2022/01/14 11:24:56;;;;;;;49.87;26.17;;;20.10;60.80;;;;;;4972335;28;20408;-74
2022/01/14 11:27:23;;;;;;;56.33;26.97;;;20.40;46.00;;;;;;4971571;28;20522;-73
2022/01/14 11:29:51;;;;;;;51.33;26.73;;;20.40;55.90;;;;;;4971521;28;20914;-72
2022/01/14 11:32:17;;;;;;;50.10;24.47;;;20.60;54.60;;;;;;4971627;28;20460;-74
2022/01/14 11:34:47;;;;;;;50.33;25.80;;;18.90;44.80;;;;;;4972622;28;20430;-74
2022/01/14 11:37:17;;;;;;;50.50;25.70;;;20.90;46.20;;;;;;4982651;28;20584;-74
2022/01/14 11:40:05;;;;;;;63.93;28.10;;;20.00;45.30;;;;;;4972090;28;20489;-73
2022/01/14 11:42:45;;;;;;;51.17;24.80;;;20.40;45.40;;;;;;4971988;28;20464;-75
2022/01/14 11:45:19;;;;;;;48.37;25.30;;;20.40;45.50;;;;;;4971902;28;20434;-75
2022/01/14 11:47:46;;;;;;;44.53;22.63;;;;;;;;;;4975826;28;20526;-73
2022/01/14 11:50:32;;;;;;;46.93;24.73;;;21.00;49.80;;;;;;4980176;28;20418;-73
2022/01/14 11:52:59;;;;;;;42.13;24.03;;;20.20;62.30;;;;;;4976049;28;20453;-73
2022/01/14 11:55:27;;;;;;;37.43;22.67;;;20.60;66.50;;;;;;4976044;28;20449;-73
2022/01/14 11:58:00;;;;;;;52.53;25.67;;;20.20;54.10;;;;;;4972071;28;20828;-74
2022/01/14 12:00:30;;;;;;;57.30;26.20;;;;;;;;;;4971930;28;20469;-73
2022/01/14 12:03:10;;;;;;;41.63;23.70;;;20.40;45.40;;;;;;4971544;28;20457;-74
2022/01/14 12:05:50;;;;;;;41.87;22.40;;;20.50;45.90;;;;;;4971765;28;20428;-74
2022/01/14 12:08:19;;;;;;;44.70;23.60;;;20.40;45.80;;;;;;4971261;28;20448;-74
2022/01/14 12:11:07;;;;;;;44.17;22.80;;;20.40;45.40;;;;;;4969439;28;20575;-74
2022/01/14 12:17:00;;;;;;;42.77;22.03;;;20.40;45.60;;;;;;4972162;28;20434;-74
2022/01/14 12:19:28;;;;;;;39.10;21.70;;;20.20;64.60;;;;;;4970104;28;20430;-74
2022/01/14 12:21:55;;;;;;;38.93;22.23;;;20.50;51.20;;;;;;4972233;28;20896;-75
2022/01/14 12:24:21;;;;;;;42.87;21.57;;;;;;;;;;4972921;28;20410;-74
2022/01/14 12:27:00;;;;;;;36.63;20.13;;;20.50;62.90;;;;;;4972055;28;20433;-73
2022/01/14 12:29:36;;;;;;;42.70;20.87;;;20.50;54.60;;;;;;4971563;28;20481;-73
2022/01/14 12:32:21;;;;;;;42.33;22.80;;;20.50;45.90;;;;;;4977670;28;20568;-74
2022/01/14 12:34:56;;;;;;;44.37;21.03;;;20.50;45.90;;;;;;4980647;28;20997;-74
2022/01/14 12:37:27;;;;;;;50.40;26.00;;;20.50;68.00;;;;;;4970014;28;20792;-73
2022/01/14 12:39:53;;;;;;;42.00;22.80;;;20.50;46.10;;;;;;4969315;28;20525;-74
2022/01/14 12:42:21;;;;;;;45.80;19.80;;;20.50;59.90;;;;;;4970854;28;20445;-73
2022/01/14 12:44:51;;;;;;;36.20;20.03;;;;;;;;;;4971266;28;20496;-74
2022/01/14 12:47:26;;;;;;;39.70;20.87;;;20.50;46.10;;;;;;4970421;28;20432;-74
2022/01/14 12:49:52;;;;;;;37.07;19.47;;;20.80;46.10;;;;;;4971159;28;20461;-73
2022/01/14 12:52:30;;;;;;;41.67;21.07;;;20.60;69.50;;;;;;4971011;28;20480;-74
2022/01/14 12:54:56;;;;;;;36.20;19.47;;;;;;;;;;4976523;28;20437;-74
2022/01/14 12:57:24;;;;;;;47.17;22.37;;;;;;;;;;4973054;28;20430;-74
2022/01/14 12:59:52;;;;;;;32.40;18.90;;;20.80;57.40;;;;;;4970823;28;20952;-74
2022/01/14 13:02:22;;;;;;;34.57;20.50;;;20.50;46.20;;;;;;4970701;28;20540;-74
2022/01/14 13:05:03;;;;;;;35.43;18.77;;;19.30;45.00;;;;;;4971364;28;20410;-74
2022/01/14 13:07:30;;;;;;;36.03;19.50;;;20.60;64.30;;;;;;4970917;28;20928;-73
2022/01/14 13:09:56;;;;;;;37.93;19.40;;;20.60;49.00;;;;;;4971265;28;20414;-75
2022/01/14 13:12:25;;;;;;;30.80;18.30;;;20.20;58.40;;;;;;4970622;28;20449;-75
2022/01/14 13:15:03;;;;;;;35.50;19.83;;;;;;;;;;4971510;28;20422;-73
2022/01/14 13:17:30;;;;;;;35.23;18.27;;;20.50;46.10;;;;;;4973450;28;20505;-73
2022/01/14 13:20:00;;;;;;;37.90;19.67;;;20.30;46.00;;;;;;4981979;28;20468;-75
2022/01/14 13:22:28;;;;;;;34.90;18.53;;;20.30;69.30;;;;;;4973604;28;21039;-75
2022/01/14 13:24:57;;;;;;;40.03;20.43;;;20.90;46.70;;;;;;4974486;28;20474;-74
2022/01/14 13:27:26;;;;;;;38.23;18.00;;;20.50;46.00;;;;;;4970960;28;20910;-75
2022/01/14 13:29:56;;;;;;;37.87;19.00;;;20.50;46.10;;;;;;4971206;28;20426;-74
2022/01/14 13:32:28;;;;;;;33.80;18.20;;;20.60;46.60;;;;;;4970626;28;20502;-74
2022/01/14 13:35:06;;;;;;;27.00;16.90;;;20.80;46.40;;;;;;4983014;28;20413;-75
2022/01/14 13:37:31;;;;;;;27.37;16.17;;;20.70;54.20;;;;;;4981435;28;20580;-75
2022/01/14 13:40:19;;;;;;;36.73;18.40;;;20.90;46.20;;;;;;4971234;28;20985;-74
2022/01/14 13:42:50;;;;;;;29.53;17.27;;;20.60;54.70;;;;;;4971365;28;20198;-74
2022/01/14 13:45:20;;;;;;;28.10;15.13;;;20.50;57.20;;;;;;4971498;28;20413;-74
2022/01/14 13:47:57;;;;;;;26.60;15.60;;;20.70;46.00;;;;;;4971300;28;20480;-74
2022/01/14 13:50:29;;;;;;;28.53;16.27;;;20.60;59.40;;;;;;4970970;28;20604;-74
2022/01/14 13:53:01;;;;;;;27.00;15.50;;;20.70;45.90;;;;;;4971317;28;20492;-74